createdAt,value
2023-05-03T01:18:49.899Z,6.93
2023-05-03T01:21:18.647Z,8.63
2023-05-03T01:24:04.960Z,9.32
2023-05-03T01:26:33.409Z,7.78
2023-05-03T01:29:00.647Z,7.82
2023-05-03T01:31:44.007Z,7.93
2023-05-03T01:34:17.099Z,7.93
2023-05-03T01:36:45.914Z,7.20
2023-05-03T01:39:24.714Z,7.85
2023-05-03T01:41:52.373Z,7.88
2023-05-03T01:44:21.474Z,7.43
2023-05-03T01:46:49.738Z,7.18
2023-05-03T01:49:16.828Z,7.13
2023-05-03T01:51:43.855Z,6.65
2023-05-03T01:54:11.314Z,7.13
2023-05-03T01:56:38.585Z,7.25
2023-05-03T01:59:05.851Z,7.28
2023-05-03T02:01:32.990Z,7.40
2023-05-03T02:04:00.201Z,7.10
2023-05-03T02:06:27.484Z,7.35
2023-05-03T02:08:54.607Z,7.45
2023-05-03T02:11:21.834Z,7.55
2023-05-03T02:13:52.931Z,7.30
2023-05-03T02:16:20.165Z,7.07
2023-05-03T02:18:47.208Z,7.30
2023-05-03T02:21:14.342Z,7.70
2023-05-03T02:23:41.351Z,7.40
2023-05-03T02:26:08.558Z,7.83
2023-05-03T02:28:35.654Z,7.30
2023-05-03T02:36:19.306Z,6.63
2023-05-03T02:38:46.950Z,7.70
2023-05-03T02:41:14.420Z,7.68
2023-05-03T02:43:41.462Z,7.30
2023-05-03T02:46:08.462Z,8.15
2023-05-03T02:48:35.614Z,8.00
2023-05-03T02:51:03.610Z,8.32
2023-05-03T02:53:30.592Z,8.80
2023-05-03T02:55:57.673Z,8.90
2023-05-03T02:58:24.847Z,8.98
2023-05-03T03:00:52.836Z,9.55
2023-05-03T03:03:19.938Z,9.67
2023-05-03T03:05:47.116Z,9.20
2023-05-03T03:08:14.177Z,9.15
2023-05-03T03:10:41.220Z,9.23
2023-05-03T03:13:08.280Z,9.52
2023-05-03T03:15:35.370Z,8.50
2023-05-03T03:18:02.378Z,8.90
2023-05-03T03:20:29.533Z,8.32
2023-05-03T03:22:56.552Z,8.38
2023-05-03T03:25:23.671Z,9.60
2023-05-03T03:27:50.824Z,9.60
2023-05-03T03:30:18.109Z,8.98
2023-05-03T03:32:45.226Z,9.23
2023-05-03T03:35:12.404Z,9.18
2023-05-03T03:37:40.236Z,8.27
2023-05-03T03:40:08.224Z,8.53
2023-05-03T03:42:35.486Z,9.90
2023-05-03T03:45:02.453Z,10.00
2023-05-03T03:47:29.478Z,10.23
2023-05-03T03:49:56.497Z,10.10
2023-05-03T03:52:24.072Z,9.85
2023-05-03T03:54:51.287Z,10.32
2023-05-03T03:57:18.332Z,11.80
2023-05-03T03:59:45.431Z,12.05
2023-05-03T04:02:12.521Z,11.38
2023-05-03T04:04:39.585Z,11.30
2023-05-03T04:07:07.930Z,11.48
2023-05-03T04:09:34.923Z,10.27
2023-05-03T04:12:03.436Z,10.85
2023-05-03T04:14:30.474Z,10.20
2023-05-03T04:16:57.698Z,10.18
2023-05-03T04:19:28.836Z,9.43
2023-05-03T04:21:55.772Z,9.82
2023-05-03T04:24:22.920Z,10.13
2023-05-03T04:26:51.520Z,10.68
2023-05-03T04:29:20.094Z,10.60
2023-05-03T04:31:47.609Z,11.32
2023-05-03T04:34:16.088Z,11.30
2023-05-03T04:36:45.664Z,10.07
2023-05-03T04:39:13.007Z,10.80
2023-05-03T04:41:42.266Z,10.23
2023-05-03T04:44:09.268Z,10.35
2023-05-03T04:46:36.849Z,10.27
2023-05-03T04:49:03.926Z,9.80
2023-05-03T04:51:31.994Z,9.93
2023-05-03T04:53:59.660Z,9.68
2023-05-03T04:56:26.872Z,10.27
2023-05-03T04:58:54.144Z,10.20
2023-05-03T05:01:26.507Z,9.43
2023-05-03T05:03:54.301Z,9.23
2023-05-03T05:06:21.421Z,8.70
2023-05-03T05:08:48.819Z,8.25
2023-05-03T05:11:16.135Z,7.60
2023-05-03T05:13:43.222Z,8.48
2023-05-03T05:16:10.281Z,8.68
2023-05-03T05:18:37.374Z,7.05
2023-05-03T05:21:04.916Z,7.75
2023-05-03T05:23:31.994Z,7.88
2023-05-03T05:26:00.645Z,7.85
2023-05-03T05:28:28.621Z,6.47
2023-05-03T05:30:55.860Z,5.70
2023-05-03T05:33:23.011Z,6.70
2023-05-03T05:35:50.148Z,6.38
2023-05-03T05:38:20.109Z,5.78
2023-05-03T05:40:47.238Z,5.88
2023-05-03T05:43:14.208Z,6.03
2023-05-03T05:45:45.399Z,4.73
2023-05-03T05:48:12.436Z,4.30
2023-05-03T05:50:39.433Z,4.30
2023-05-03T05:53:06.498Z,4.40
2023-05-03T05:55:33.516Z,4.67
2023-05-03T05:58:00.602Z,4.80
2023-05-03T06:00:27.750Z,3.63
2023-05-03T06:02:54.784Z,3.43
2023-05-03T06:05:22.154Z,3.57
2023-05-03T06:07:50.082Z,3.35
2023-05-03T06:10:17.408Z,3.55
2023-05-03T06:12:44.384Z,3.30
2023-05-03T06:15:11.510Z,3.93
2023-05-03T06:17:38.545Z,3.35
2023-05-03T06:20:06.968Z,3.85
2023-05-03T06:22:34.144Z,3.53
2023-05-03T06:25:01.346Z,3.70
2023-05-03T06:27:28.354Z,4.03
2023-05-03T06:29:55.389Z,3.58
2023-05-03T06:32:23.436Z,3.50
2023-05-03T06:34:50.875Z,2.92
2023-05-03T06:37:17.959Z,3.08
2023-05-03T06:39:45.067Z,3.10
2023-05-03T06:42:12.115Z,2.95
2023-05-03T06:44:39.086Z,2.35
2023-05-03T06:47:06.270Z,2.75
2023-05-03T06:49:33.625Z,2.63
2023-05-03T06:52:00.744Z,2.20
2023-05-03T06:54:27.820Z,2.30
2023-05-03T06:56:54.793Z,2.20
2023-05-03T06:59:21.833Z,2.40
2023-05-03T07:01:48.908Z,2.10
2023-05-03T07:04:16.152Z,2.20
2023-05-03T07:06:55.452Z,2.00
2023-05-03T07:09:32.061Z,2.03
2023-05-03T07:12:03.509Z,1.95
2023-05-03T07:14:31.888Z,2.00
2023-05-03T07:16:58.919Z,1.83
2023-05-03T07:19:25.888Z,1.80
2023-05-03T07:21:52.942Z,1.90
2023-05-03T07:24:20.438Z,2.00
2023-05-03T07:26:49.000Z,1.73
2023-05-03T07:29:16.189Z,1.90
2023-05-03T07:31:44.882Z,1.80
2023-05-03T07:34:12.075Z,1.93
2023-05-03T07:36:39.895Z,1.70
2023-05-03T07:39:07.471Z,1.90
2023-05-03T07:53:49.030Z,2.00
2023-05-03T07:56:16.007Z,2.47
2023-05-03T07:58:45.024Z,2.23
2023-05-03T08:01:13.771Z,1.87
2023-05-03T08:03:41.251Z,1.60
2023-05-03T08:06:08.420Z,2.17
2023-05-03T08:08:36.771Z,1.90
2023-05-03T08:11:04.266Z,2.20
2023-05-03T08:13:31.205Z,2.17
2023-05-03T08:15:58.208Z,2.00
2023-05-03T08:18:25.794Z,2.20
2023-05-03T08:20:52.895Z,1.98
2023-05-03T08:23:21.298Z,1.88
2023-05-03T08:25:51.433Z,1.90
2023-05-03T08:28:18.669Z,1.67
2023-05-03T08:30:45.627Z,1.90
2023-05-03T09:36:04.886Z,1.98
2023-05-03T09:38:34.963Z,2.20
2023-05-03T09:41:02.344Z,2.13
2023-05-03T09:43:29.457Z,2.03
2023-05-03T09:46:12.955Z,2.30
2023-05-03T09:48:41.247Z,2.10
2023-05-03T09:51:09.894Z,2.20
2023-05-03T09:53:39.593Z,2.60
2023-05-03T10:01:05.222Z,2.20
2023-05-03T10:03:53.062Z,2.43
2023-05-03T10:06:31.991Z,2.60
2023-05-03T10:09:31.401Z,2.77
2023-05-03T10:12:02.275Z,2.47
2023-05-03T10:14:29.634Z,2.43
2023-05-03T10:17:06.379Z,2.33
2023-05-03T10:20:07.315Z,2.67
2023-05-03T10:23:06.702Z,2.80
2023-05-03T10:25:37.419Z,2.90
2023-05-03T10:28:07.261Z,2.70
2023-05-03T10:30:40.085Z,3.13
2023-05-03T10:33:13.089Z,2.67
2023-05-03T10:35:42.224Z,2.67
2023-05-03T10:38:17.372Z,2.97
2023-05-03T10:40:45.015Z,2.77
2023-05-03T10:43:30.654Z,3.03
2023-05-03T10:45:58.539Z,3.00
2023-05-03T10:48:26.087Z,3.00
2023-05-03T10:50:54.510Z,2.50
2023-05-03T10:53:42.760Z,3.03
2023-05-03T10:56:14.271Z,2.50
2023-05-03T10:58:50.879Z,3.00
2023-05-03T11:01:19.630Z,2.33
2023-05-03T11:04:11.140Z,3.07
2023-05-03T11:06:46.287Z,2.80
2023-05-03T11:09:14.958Z,3.13
2023-05-03T11:11:43.558Z,2.70
2023-05-03T11:14:13.759Z,3.23
2023-05-03T11:16:48.021Z,2.97
2023-05-03T11:19:16.220Z,2.73
2023-05-03T11:21:46.330Z,2.70
2023-05-03T11:24:13.971Z,2.80
2023-05-03T11:26:41.285Z,2.50
2023-05-03T11:29:10.978Z,2.60
2023-05-03T11:31:38.162Z,2.70
2023-05-03T11:34:06.874Z,2.70
2023-05-03T11:36:34.658Z,3.00
2023-05-03T11:39:04.284Z,2.83
2023-05-03T11:41:31.475Z,3.07
2023-05-03T11:44:14.451Z,3.43
2023-05-03T11:46:44.605Z,3.30
2023-05-03T11:49:19.304Z,2.70
2023-05-03T11:51:49.350Z,2.67
2023-05-03T11:54:25.043Z,2.77
2023-05-03T11:56:58.156Z,2.83
2023-05-03T11:59:39.729Z,2.80
2023-05-03T12:02:09.816Z,3.10
2023-05-03T12:04:43.187Z,2.90
2023-05-03T12:07:15.263Z,3.63
2023-05-03T12:09:45.338Z,3.30
2023-05-03T12:12:27.572Z,3.97
2023-05-03T12:15:04.458Z,3.70
2023-05-03T12:17:39.771Z,3.07
2023-05-03T12:21:28.506Z,3.60
2023-05-03T12:23:21.480Z,3.50
2023-05-03T12:25:49.440Z,4.90
2023-05-03T12:28:20.890Z,3.00
2023-05-03T12:30:48.667Z,4.40
2023-05-03T12:33:16.989Z,3.57
2023-05-03T12:35:47.809Z,4.20
2023-05-03T12:38:17.333Z,3.60
2023-05-03T12:40:47.075Z,3.50
2023-05-03T12:43:14.662Z,3.40
2023-05-03T12:45:44.840Z,3.83
2023-05-03T12:48:14.482Z,4.20
2023-05-03T12:50:45.157Z,3.97
2023-05-03T12:53:16.745Z,3.70
2023-05-03T12:55:45.288Z,3.40
2023-05-03T13:01:22.213Z,4.17
2023-05-03T13:03:43.127Z,3.80
2023-05-03T13:06:14.402Z,4.20
2023-05-03T13:08:49.359Z,3.97
2023-05-03T13:11:19.872Z,4.10
2023-05-03T13:13:47.290Z,4.37
2023-05-03T13:16:14.599Z,3.83
2023-05-03T13:18:43.035Z,4.23
2023-05-03T15:16:56.758Z,4.30
2023-05-03T15:19:23.797Z,4.20
2023-05-03T15:21:51.993Z,3.90
2023-05-03T15:24:19.219Z,4.07
2023-05-03T15:26:47.102Z,3.93
2023-05-03T15:29:15.780Z,3.97
2023-05-03T15:31:43.733Z,3.50
2023-05-03T15:34:12.390Z,3.70
2023-05-03T15:36:40.613Z,4.10
2023-05-03T15:39:09.369Z,5.37
2023-05-03T15:41:36.505Z,5.13
2023-05-03T15:44:05.518Z,3.70
2023-05-03T15:46:34.190Z,3.90
2023-05-03T15:49:01.297Z,3.53
2023-05-03T15:51:29.288Z,3.63
2023-05-03T15:53:56.298Z,3.70
2023-05-03T15:56:23.512Z,3.80
2023-05-03T15:58:50.671Z,3.93
2023-05-03T16:01:18.724Z,3.77
2023-05-03T16:03:46.237Z,3.70
2023-05-03T16:06:16.805Z,3.93
2023-05-03T16:08:44.357Z,3.40
2023-05-03T16:11:12.804Z,4.27
2023-05-03T16:13:39.888Z,4.77
2023-05-03T16:16:07.169Z,3.47
2023-05-03T16:18:34.250Z,3.47
2023-05-03T16:21:02.640Z,3.90
2023-05-03T16:23:29.876Z,3.83
2023-05-03T16:25:57.143Z,3.80
2023-05-03T16:28:24.185Z,3.83
2023-05-03T16:30:51.772Z,3.97
2023-05-03T16:33:19.591Z,3.47
2023-05-03T16:35:46.650Z,3.58
2023-05-03T16:38:13.612Z,4.20
2023-05-03T16:40:40.924Z,4.40
2023-05-03T17:05:15.368Z,4.28
2023-05-03T17:07:42.502Z,4.67
2023-05-03T17:10:10.085Z,4.23
2023-05-03T17:17:32.781Z,4.77
2023-05-03T17:19:59.905Z,4.10
2023-05-03T17:22:27.220Z,4.50
2023-05-03T17:29:51.624Z,4.43
2023-05-03T17:32:18.740Z,4.90
2023-05-03T17:34:46.055Z,4.97
2023-05-03T17:37:13.199Z,4.60
2023-05-03T17:47:00.972Z,5.27
2023-05-03T17:49:28.045Z,5.10
2023-05-03T17:51:55.045Z,4.90
2023-05-03T17:54:22.085Z,4.70
2023-05-03T17:56:49.791Z,5.63
2023-05-03T17:59:17.108Z,4.70
2023-05-03T18:01:44.128Z,4.97
2023-05-03T18:04:11.570Z,5.00
2023-05-03T18:06:38.589Z,10.23
2023-05-03T18:09:07.147Z,5.17
2023-05-03T18:11:34.146Z,4.63
2023-05-03T18:14:01.190Z,4.27
2023-05-03T18:28:45.062Z,4.53
2023-05-03T18:31:12.792Z,4.63
2023-05-03T18:33:40.437Z,4.27
2023-05-03T18:41:16.054Z,4.60
2023-05-03T18:43:47.993Z,4.33
2023-05-03T18:46:19.780Z,4.30
2023-05-03T19:25:03.455Z,4.15
2023-05-03T19:27:32.922Z,4.23
2023-05-03T19:34:15.615Z,3.97
2023-05-03T19:59:02.106Z,4.23
2023-05-03T20:01:29.425Z,4.90
2023-05-03T20:03:56.696Z,4.10
2023-05-03T20:08:51.269Z,4.63
2023-05-03T20:11:22.293Z,4.37
2023-05-03T20:13:49.525Z,4.40
2023-05-03T20:16:18.334Z,4.37
2023-05-03T20:18:48.133Z,4.20
2023-05-03T20:21:15.606Z,4.83
2023-05-03T20:23:42.744Z,5.43
2023-05-03T20:26:09.997Z,5.30
2023-05-03T20:28:37.057Z,4.90
2023-05-03T20:31:04.836Z,4.80
2023-05-03T20:33:32.784Z,5.05
2023-05-03T20:35:59.898Z,5.00
2023-05-03T20:38:26.967Z,5.47
2023-05-03T20:40:53.968Z,5.03
2023-05-03T20:43:21.040Z,5.30
2023-05-03T20:45:48.545Z,5.47
2023-05-03T20:48:16.059Z,5.50
2023-05-03T20:50:44.038Z,5.03
2023-05-03T20:53:10.985Z,6.00
2023-05-03T20:55:38.685Z,5.73
2023-05-03T20:58:05.971Z,5.82
2023-05-03T21:00:33.094Z,6.45
2023-05-03T21:03:00.336Z,5.70
2023-05-03T21:05:29.111Z,5.57
2023-05-03T21:07:56.260Z,6.00
2023-05-03T21:10:23.545Z,5.50
2023-05-03T21:12:50.731Z,5.88
2023-05-03T21:15:17.929Z,6.40
2023-05-03T21:17:45.019Z,6.35
2023-05-03T21:20:12.565Z,6.43
2023-05-03T21:22:39.577Z,6.43
2023-05-03T21:25:07.578Z,6.10
2023-05-03T21:27:34.637Z,6.20
2023-05-03T21:30:01.970Z,6.45
2023-05-03T21:32:29.339Z,6.97
2023-05-03T21:34:57.662Z,7.15
2023-05-03T21:37:24.794Z,7.20
2023-05-03T21:40:01.533Z,7.80
2023-05-03T21:42:33.012Z,7.63
2023-05-03T21:45:00.253Z,7.72
2023-05-03T21:47:28.160Z,7.70
2023-05-03T21:49:55.327Z,8.30
2023-05-03T21:52:22.617Z,8.35
2023-05-03T21:54:49.795Z,8.88
2023-05-03T21:57:18.863Z,8.10
2023-05-03T21:59:46.751Z,8.65
2023-05-03T22:02:14.139Z,8.65
2023-05-03T22:04:41.280Z,8.90
2023-05-03T22:07:08.730Z,9.05
2023-05-03T22:09:36.234Z,9.23
2023-05-03T22:12:15.550Z,8.70
2023-05-03T22:14:50.195Z,8.50
2023-05-03T22:17:17.466Z,8.53
2023-05-03T22:19:44.659Z,8.77
2023-05-03T22:22:12.209Z,9.10
2023-05-03T22:24:39.274Z,9.15
2023-05-03T22:27:06.205Z,9.45
2023-05-03T22:29:33.336Z,9.13
2023-05-03T22:32:00.562Z,9.23
2023-05-03T22:34:27.576Z,9.40
2023-05-03T22:36:54.617Z,8.93
2023-05-03T22:39:21.968Z,8.85
2023-05-03T22:41:48.968Z,9.18
2023-05-03T22:44:16.008Z,9.20
2023-05-03T22:46:43.184Z,9.00
2023-05-03T22:49:10.198Z,9.02
2023-05-03T22:51:37.227Z,8.55
2023-05-03T22:54:04.835Z,8.65
2023-05-03T22:56:31.830Z,8.27
2023-05-03T22:58:58.821Z,8.15
2023-05-03T23:01:26.975Z,8.48
2023-05-03T23:03:54.311Z,7.78
2023-05-03T23:06:21.436Z,7.97
2023-05-03T23:08:49.022Z,7.93
2023-05-03T23:11:16.225Z,7.50
2023-05-03T23:13:43.745Z,7.77
2023-05-03T23:16:10.848Z,7.93
2023-05-03T23:18:37.986Z,9.07
2023-05-03T23:21:05.086Z,8.27
2023-05-03T23:23:32.075Z,7.68
2023-05-03T23:25:59.103Z,8.18
2023-05-03T23:28:26.586Z,7.70
2023-05-03T23:30:54.064Z,8.23
2023-05-03T23:33:21.629Z,7.78
2023-05-03T23:35:48.970Z,7.53
2023-05-03T23:38:16.374Z,8.00
2023-05-03T23:40:43.447Z,7.43
2023-05-03T23:43:10.412Z,7.70
2023-05-03T23:45:37.439Z,7.25
2023-05-03T23:48:05.154Z,7.43
2023-05-03T23:50:32.286Z,7.10
2023-05-03T23:52:59.565Z,7.20
2023-05-03T23:55:26.761Z,7.13
2023-05-03T23:57:53.822Z,7.35
